EGPO

Stornoway Airport

Stornoway, United Kingdom
METAR EGPO 190320Z AUTO 23005KT 4200 -SN BKN002/// BKN007/// 00/M00 Q0994
Observed Flight Rules
Jan-19 @ 03:20 UTC (17 minutes ago) Instrument Flight Rules
Wind Visibility Clouds Conditions
230° at 5 knots 4,200 meters
  • Broken at 200' AGL
  • Broken at 700' AGL
  • Light Snow
Temperatures Readings
Current 0°C / 32°F
Dewpoint 0°C / 32°F
Humidity 100%
Altimeter 29.35" Hg
Pressure 994 hPa
Elevation 13
METAR EGPO 190320Z AUTO 23005KT 4200 -SN BKN002/// BKN007/// 00/M00 Q0994
Observed Flight Rules
Jan-19 @ 03:20 UTC
(17 minutes ago)
LIFR
Wind Visibility
230° at 5 knots 4,200 meters
Clouds
  • Broken at 200' AGL
  • Broken at 700' AGL
Conditions
  • Light Snow
Temperature Dewpoint
0°C / 32°F 0°C / 32°F
Humidity Altimeter Pressure
100% 29.35" Hg 994 hPa